sensor_id;sensor_type;location;lat;lon;timestamp;temperature;humidity
52943;DHT22;38809;53.300;6.614;2022-12-07T00:01:10;4.60;99.90
52943;DHT22;38809;53.300;6.614;2022-12-07T00:03:38;4.20;99.90
52943;DHT22;38809;53.300;6.614;2022-12-07T00:06:05;4.10;99.90
52943;DHT22;38809;53.300;6.614;2022-12-07T00:08:33;4.10;99.90
52943;DHT22;38809;53.300;6.614;2022-12-07T00:11:10;4.50;99.90
52943;DHT22;38809;53.300;6.614;2022-12-07T00:13:36;4.00;99.90
52943;DHT22;38809;53.300;6.614;2022-12-07T00:18:32;3.90;99.90
52943;DHT22;38809;53.300;6.614;2022-12-07T00:21:11;3.90;99.90
52943;DHT22;38809;53.300;6.614;2022-12-07T00:23:38;3.90;99.90
52943;DHT22;38809;53.300;6.614;2022-12-07T00:26:10;3.90;99.90
52943;DHT22;38809;53.300;6.614;2022-12-07T00:28:36;5.90;99.90
52943;DHT22;38809;53.300;6.614;2022-12-07T00:31:05;3.90;99.90
52943;DHT22;38809;53.300;6.614;2022-12-07T00:33:32;3.90;99.90
52943;DHT22;38809;53.300;6.614;2022-12-07T00:35:59;2.70;99.90
52943;DHT22;38809;53.300;6.614;2022-12-07T00:38:27;4.00;99.90
52943;DHT22;38809;53.300;6.614;2022-12-07T00:40:58;5.50;99.90
52943;DHT22;38809;53.300;6.614;2022-12-07T00:43:24;4.00;99.90
52943;DHT22;38809;53.300;6.614;2022-12-07T00:45:49;4.10;99.90
52943;DHT22;38809;53.300;6.614;2022-12-07T00:48:15;4.00;99.90
52943;DHT22;38809;53.300;6.614;2022-12-07T00:50:41;4.10;99.90
52943;DHT22;38809;53.300;6.614;2022-12-07T00:53:06;5.20;99.90
52943;DHT22;38809;53.300;6.614;2022-12-07T00:55:33;4.20;99.90
52943;DHT22;38809;53.300;6.614;2022-12-07T00:57:59;4.20;99.90
52943;DHT22;38809;53.300;6.614;2022-12-07T01:00:25;4.80;99.90
52943;DHT22;38809;53.300;6.614;2022-12-07T01:02:50;4.30;99.90
52943;DHT22;38809;53.300;6.614;2022-12-07T01:05:16;4.50;99.90
52943;DHT22;38809;53.300;6.614;2022-12-07T01:07:42;4.50;99.90
52943;DHT22;38809;53.300;6.614;2022-12-07T01:10:08;4.80;99.90
52943;DHT22;38809;53.300;6.614;2022-12-07T01:12:33;4.50;99.90
52943;DHT22;38809;53.300;6.614;2022-12-07T01:14:59;4.50;99.90
52943;DHT22;38809;53.300;6.614;2022-12-07T01:17:25;4.40;99.90
52943;DHT22;38809;53.300;6.614;2022-12-07T01:19:50;6.10;99.90
52943;DHT22;38809;53.300;6.614;2022-12-07T01:22:16;4.30;99.90
52943;DHT22;38809;53.300;6.614;2022-12-07T01:24:42;4.30;99.90
52943;DHT22;38809;53.300;6.614;2022-12-07T01:27:07;4.30;99.90
52943;DHT22;38809;53.300;6.614;2022-12-07T01:29:33;4.30;99.90
52943;DHT22;38809;53.300;6.614;2022-12-07T01:31:58;4.30;99.90
52943;DHT22;38809;53.300;6.614;2022-12-07T01:34:24;4.30;99.90
52943;DHT22;38809;53.300;6.614;2022-12-07T01:36:50;4.40;99.90
52943;DHT22;38809;53.300;6.614;2022-12-07T01:39:16;4.30;99.90
52943;DHT22;38809;53.300;6.614;2022-12-07T01:41:41;4.40;99.90
52943;DHT22;38809;53.300;6.614;2022-12-07T01:46:45;4.40;99.90
52943;DHT22;38809;53.300;6.614;2022-12-07T01:49:17;4.40;99.90
52943;DHT22;38809;53.300;6.614;2022-12-07T01:51:46;4.40;99.90
52943;DHT22;38809;53.300;6.614;2022-12-07T01:54:14;4.40;99.90
52943;DHT22;38809;53.300;6.614;2022-12-07T01:56:45;4.40;99.90
52943;DHT22;38809;53.300;6.614;2022-12-07T01:59:13;5.70;99.90
52943;DHT22;38809;53.300;6.614;2022-12-07T02:01:39;5.60;99.90
52943;DHT22;38809;53.300;6.614;2022-12-07T02:04:05;4.30;99.90
52943;DHT22;38809;53.300;6.614;2022-12-07T02:06:31;4.40;99.90
52943;DHT22;38809;53.300;6.614;2022-12-07T02:08:57;4.50;99.90
52943;DHT22;38809;53.300;6.614;2022-12-07T02:11:23;4.10;99.90
52943;DHT22;38809;53.300;6.614;2022-12-07T02:13:49;4.10;99.90
52943;DHT22;38809;53.300;6.614;2022-12-07T02:16:45;5.60;99.90
52943;DHT22;38809;53.300;6.614;2022-12-07T02:25:00;3.90;99.90
52943;DHT22;38809;53.300;6.614;2022-12-07T02:30:13;3.80;99.90
52943;DHT22;38809;53.300;6.614;2022-12-07T02:35:19;3.70;99.90
52943;DHT22;38809;53.300;6.614;2022-12-07T02:40:40;3.70;99.90
52943;DHT22;38809;53.300;6.614;2022-12-07T02:43:25;3.60;99.90
52943;DHT22;38809;53.300;6.614;2022-12-07T02:45:55;3.70;99.90
52943;DHT22;38809;53.300;6.614;2022-12-07T02:48:23;4.30;99.90
52943;DHT22;38809;53.300;6.614;2022-12-07T02:50:51;5.60;99.90
52943;DHT22;38809;53.300;6.614;2022-12-07T02:53:36;3.80;99.90
52943;DHT22;38809;53.300;6.614;2022-12-07T03:01:44;5.10;99.90
52943;DHT22;38809;53.300;6.614;2022-12-07T03:06:58;3.90;99.90
52943;DHT22;38809;53.300;6.614;2022-12-07T03:12:30;3.90;99.90
52943;DHT22;38809;53.300;6.614;2022-12-07T03:15:08;4.00;99.90
52943;DHT22;38809;53.300;6.614;2022-12-07T03:17:38;3.90;99.90
52943;DHT22;38809;53.300;6.614;2022-12-07T03:20:07;3.90;99.90
52943;DHT22;38809;53.300;6.614;2022-12-07T03:22:35;3.90;99.90
52943;DHT22;38809;53.300;6.614;2022-12-07T03:25:07;3.90;99.90
52943;DHT22;38809;53.300;6.614;2022-12-07T03:27:39;3.90;99.90
52943;DHT22;38809;53.300;6.614;2022-12-07T03:30:31;4.10;99.90
52943;DHT22;38809;53.300;6.614;2022-12-07T03:33:01;4.10;99.90
52943;DHT22;38809;53.300;6.614;2022-12-07T03:35:30;4.80;99.90
52943;DHT22;38809;53.300;6.614;2022-12-07T03:38:02;4.30;99.90
52943;DHT22;38809;53.300;6.614;2022-12-07T03:40:37;4.30;99.90
52943;DHT22;38809;53.300;6.614;2022-12-07T03:43:05;4.30;99.90
52943;DHT22;38809;53.300;6.614;2022-12-07T03:45:38;4.30;99.90
52943;DHT22;38809;53.300;6.614;2022-12-07T03:50:50;4.20;99.90
52943;DHT22;38809;53.300;6.614;2022-12-07T03:53:19;4.10;99.90
52943;DHT22;38809;53.300;6.614;2022-12-07T03:55:47;4.00;99.90
52943;DHT22;38809;53.300;6.614;2022-12-07T03:58:17;4.10;99.90
52943;DHT22;38809;53.300;6.614;2022-12-07T04:00:44;4.00;99.90
52943;DHT22;38809;53.300;6.614;2022-12-07T04:03:10;4.00;99.90
52943;DHT22;38809;53.300;6.614;2022-12-07T04:05:37;5.30;99.90
52943;DHT22;38809;53.300;6.614;2022-12-07T04:08:03;3.90;99.90
52943;DHT22;38809;53.300;6.614;2022-12-07T04:10:28;3.90;99.90
52943;DHT22;38809;53.300;6.614;2022-12-07T04:12:55;4.50;99.90
52943;DHT22;38809;53.300;6.614;2022-12-07T04:15:21;5.70;99.90
52943;DHT22;38809;53.300;6.614;2022-12-07T04:17:47;3.90;99.90
52943;DHT22;38809;53.300;6.614;2022-12-07T04:20:13;4.90;99.90
52943;DHT22;38809;53.300;6.614;2022-12-07T04:22:38;4.00;99.90
52943;DHT22;38809;53.300;6.614;2022-12-07T04:25:04;4.00;99.90
52943;DHT22;38809;53.300;6.614;2022-12-07T04:27:30;3.80;99.90
52943;DHT22;38809;53.300;6.614;2022-12-07T04:29:56;3.80;99.90
52943;DHT22;38809;53.300;6.614;2022-12-07T04:32:23;4.50;99.90
52943;DHT22;38809;53.300;6.614;2022-12-07T04:34:48;4.20;99.90
52943;DHT22;38809;53.300;6.614;2022-12-07T04:37:14;6.00;99.90
52943;DHT22;38809;53.300;6.614;2022-12-07T04:39:40;6.10;99.90
52943;DHT22;38809;53.300;6.614;2022-12-07T04:42:06;4.20;99.90
52943;DHT22;38809;53.300;6.614;2022-12-07T04:44:31;4.20;99.90
52943;DHT22;38809;53.300;6.614;2022-12-07T04:46:57;4.20;99.90
52943;DHT22;38809;53.300;6.614;2022-12-07T04:49:23;4.10;99.90
52943;DHT22;38809;53.300;6.614;2022-12-07T04:51:49;4.00;99.90
52943;DHT22;38809;53.300;6.614;2022-12-07T04:54:16;3.90;99.90
52943;DHT22;38809;53.300;6.614;2022-12-07T04:56:42;5.60;99.90
52943;DHT22;38809;53.300;6.614;2022-12-07T04:59:10;4.20;99.90
52943;DHT22;38809;53.300;6.614;2022-12-07T05:01:36;3.90;99.90
52943;DHT22;38809;53.300;6.614;2022-12-07T05:04:02;4.30;99.90
52943;DHT22;38809;53.300;6.614;2022-12-07T05:06:28;3.60;99.90
52943;DHT22;38809;53.300;6.614;2022-12-07T05:08:54;3.90;99.90
52943;DHT22;38809;53.300;6.614;2022-12-07T05:11:19;4.00;99.90
52943;DHT22;38809;53.300;6.614;2022-12-07T05:14:05;3.60;99.90
52943;DHT22;38809;53.300;6.614;2022-12-07T05:16:31;5.20;99.90
52943;DHT22;38809;53.300;6.614;2022-12-07T05:18:57;5.10;99.90
52943;DHT22;38809;53.300;6.614;2022-12-07T05:21:23;3.80;99.90
52943;DHT22;38809;53.300;6.614;2022-12-07T05:23:49;3.70;99.90
52943;DHT22;38809;53.300;6.614;2022-12-07T05:26:15;3.30;99.90
52943;DHT22;38809;53.300;6.614;2022-12-07T05:28:40;3.20;99.90
52943;DHT22;38809;53.300;6.614;2022-12-07T05:31:06;3.20;99.90
52943;DHT22;38809;53.300;6.614;2022-12-07T05:33:32;3.20;99.90
52943;DHT22;38809;53.300;6.614;2022-12-07T05:35:57;3.20;99.90
52943;DHT22;38809;53.300;6.614;2022-12-07T05:38:23;3.10;99.90
52943;DHT22;38809;53.300;6.614;2022-12-07T05:40:50;4.30;99.90
52943;DHT22;38809;53.300;6.614;2022-12-07T05:43:16;3.00;99.90
52943;DHT22;38809;53.300;6.614;2022-12-07T05:45:42;2.90;99.90
52943;DHT22;38809;53.300;6.614;2022-12-07T05:48:07;4.10;99.90
52943;DHT22;38809;53.300;6.614;2022-12-07T05:50:33;2.90;99.90
52943;DHT22;38809;53.300;6.614;2022-12-07T05:52:59;2.80;99.90
52943;DHT22;38809;53.300;6.614;2022-12-07T05:55:24;3.70;99.90
52943;DHT22;38809;53.300;6.614;2022-12-07T05:57:50;4.60;99.90
52943;DHT22;38809;53.300;6.614;2022-12-07T06:00:34;3.50;99.90
52943;DHT22;38809;53.300;6.614;2022-12-07T06:03:00;2.70;99.90
52943;DHT22;38809;53.300;6.614;2022-12-07T06:05:26;2.80;99.90
52943;DHT22;38809;53.300;6.614;2022-12-07T06:07:51;2.90;99.90
52943;DHT22;38809;53.300;6.614;2022-12-07T06:10:17;3.70;99.90
52943;DHT22;38809;53.300;6.614;2022-12-07T06:12:42;2.90;99.90
52943;DHT22;38809;53.300;6.614;2022-12-07T06:15:11;3.50;99.90
52943;DHT22;38809;53.300;6.614;2022-12-07T06:17:38;3.20;99.90
52943;DHT22;38809;53.300;6.614;2022-12-07T06:20:05;3.90;99.90
52943;DHT22;38809;53.300;6.614;2022-12-07T06:22:31;3.50;99.90
52943;DHT22;38809;53.300;6.614;2022-12-07T06:24:56;4.20;99.90
52943;DHT22;38809;53.300;6.614;2022-12-07T06:27:22;3.60;99.90
52943;DHT22;38809;53.300;6.614;2022-12-07T06:29:48;3.80;99.90
52943;DHT22;38809;53.300;6.614;2022-12-07T06:32:13;4.70;99.90
52943;DHT22;38809;53.300;6.614;2022-12-07T06:34:39;4.00;99.90
52943;DHT22;38809;53.300;6.614;2022-12-07T06:37:05;5.00;99.90
52943;DHT22;38809;53.300;6.614;2022-12-07T06:39:30;3.60;99.90
52943;DHT22;38809;53.300;6.614;2022-12-07T06:41:56;3.60;99.90
52943;DHT22;38809;53.300;6.614;2022-12-07T06:44:23;5.50;99.90
52943;DHT22;38809;53.300;6.614;2022-12-07T06:46:49;4.70;99.90
52943;DHT22;38809;53.300;6.614;2022-12-07T06:49:15;3.50;99.90
52943;DHT22;38809;53.300;6.614;2022-12-07T06:51:42;3.70;99.90
52943;DHT22;38809;53.300;6.614;2022-12-07T06:54:09;3.50;99.90
52943;DHT22;38809;53.300;6.614;2022-12-07T06:56:35;3.40;99.90
52943;DHT22;38809;53.300;6.614;2022-12-07T06:59:01;3.40;99.90
52943;DHT22;38809;53.300;6.614;2022-12-07T07:01:27;3.40;99.90
52943;DHT22;38809;53.300;6.614;2022-12-07T07:03:53;4.50;99.90
52943;DHT22;38809;53.300;6.614;2022-12-07T07:06:19;3.50;99.90
52943;DHT22;38809;53.300;6.614;2022-12-07T07:08:45;5.20;99.90
52943;DHT22;38809;53.300;6.614;2022-12-07T07:11:10;3.40;99.90
52943;DHT22;38809;53.300;6.614;2022-12-07T07:13:36;3.40;99.90
52943;DHT22;38809;53.300;6.614;2022-12-07T07:16:03;4.50;99.90
52943;DHT22;38809;53.300;6.614;2022-12-07T07:18:29;3.40;99.90
52943;DHT22;38809;53.300;6.614;2022-12-07T07:20:54;3.50;99.90
52943;DHT22;38809;53.300;6.614;2022-12-07T07:23:21;3.50;99.90
52943;DHT22;38809;53.300;6.614;2022-12-07T07:25:47;3.90;99.90
52943;DHT22;38809;53.300;6.614;2022-12-07T07:28:13;3.60;99.90
52943;DHT22;38809;53.300;6.614;2022-12-07T07:30:38;3.90;99.90
52943;DHT22;38809;53.300;6.614;2022-12-07T07:33:04;3.70;99.90
52943;DHT22;38809;53.300;6.614;2022-12-07T07:35:32;3.70;99.90
52943;DHT22;38809;53.300;6.614;2022-12-07T07:37:58;3.70;99.90
52943;DHT22;38809;53.300;6.614;2022-12-07T07:40:24;3.70;99.90
52943;DHT22;38809;53.300;6.614;2022-12-07T07:42:51;4.30;99.90
52943;DHT22;38809;53.300;6.614;2022-12-07T07:45:22;3.90;99.90
52943;DHT22;38809;53.300;6.614;2022-12-07T07:47:48;5.20;99.90
52943;DHT22;38809;53.300;6.614;2022-12-07T07:50:14;3.80;99.90
52943;DHT22;38809;53.300;6.614;2022-12-07T07:52:40;3.80;99.90
52943;DHT22;38809;53.300;6.614;2022-12-07T07:55:06;5.80;99.90
52943;DHT22;38809;53.300;6.614;2022-12-07T07:57:34;3.80;99.90
52943;DHT22;38809;53.300;6.614;2022-12-07T08:00:00;3.80;99.90
52943;DHT22;38809;53.300;6.614;2022-12-07T08:02:26;3.70;99.90
52943;DHT22;38809;53.300;6.614;2022-12-07T08:04:55;3.70;99.90
52943;DHT22;38809;53.300;6.614;2022-12-07T08:07:20;3.70;99.90
52943;DHT22;38809;53.300;6.614;2022-12-07T08:09:46;5.20;99.90
52943;DHT22;38809;53.300;6.614;2022-12-07T08:12:12;3.60;99.90
52943;DHT22;38809;53.300;6.614;2022-12-07T08:14:38;3.60;99.90
52943;DHT22;38809;53.300;6.614;2022-12-07T08:17:03;2.80;99.90
52943;DHT22;38809;53.300;6.614;2022-12-07T08:19:29;5.40;99.90
52943;DHT22;38809;53.300;6.614;2022-12-07T08:21:55;4.80;99.90
52943;DHT22;38809;53.300;6.614;2022-12-07T08:24:21;5.00;99.90
52943;DHT22;38809;53.300;6.614;2022-12-07T08:26:47;3.50;99.90
52943;DHT22;38809;53.300;6.614;2022-12-07T08:29:13;3.50;99.90
52943;DHT22;38809;53.300;6.614;2022-12-07T08:31:39;3.60;99.90
52943;DHT22;38809;53.300;6.614;2022-12-07T08:34:05;3.70;99.90
52943;DHT22;38809;53.300;6.614;2022-12-07T08:36:30;4.90;99.90
52943;DHT22;38809;53.300;6.614;2022-12-07T08:38:56;3.90;99.90
52943;DHT22;38809;53.300;6.614;2022-12-07T08:41:22;4.00;99.90
52943;DHT22;38809;53.300;6.614;2022-12-07T08:43:47;4.20;99.90
52943;DHT22;38809;53.300;6.614;2022-12-07T08:46:26;4.10;99.90
52943;DHT22;38809;53.300;6.614;2022-12-07T08:49:19;4.20;99.90
52943;DHT22;38809;53.300;6.614;2022-12-07T08:51:43;5.90;99.90
52943;DHT22;38809;53.300;6.614;2022-12-07T08:54:12;4.50;99.90
52943;DHT22;38809;53.300;6.614;2022-12-07T08:56:39;4.60;99.90
52943;DHT22;38809;53.300;6.614;2022-12-07T08:59:05;4.60;99.90
52943;DHT22;38809;53.300;6.614;2022-12-07T09:01:31;4.90;99.90
52943;DHT22;38809;53.300;6.614;2022-12-07T09:03:57;4.60;99.90
52943;DHT22;38809;53.300;6.614;2022-12-07T09:06:22;4.70;99.90
52943;DHT22;38809;53.300;6.614;2022-12-07T09:08:51;4.70;99.90
52943;DHT22;38809;53.300;6.614;2022-12-07T09:11:18;4.80;99.90
52943;DHT22;38809;53.300;6.614;2022-12-07T09:13:44;4.80;99.90
52943;DHT22;38809;53.300;6.614;2022-12-07T09:16:09;4.80;99.90
52943;DHT22;38809;53.300;6.614;2022-12-07T09:18:36;5.00;99.90
52943;DHT22;38809;53.300;6.614;2022-12-07T09:21:02;5.60;99.90
52943;DHT22;38809;53.300;6.614;2022-12-07T09:23:27;5.40;99.90
52943;DHT22;38809;53.300;6.614;2022-12-07T09:25:53;5.50;99.90
52943;DHT22;38809;53.300;6.614;2022-12-07T09:28:19;5.70;99.90
52943;DHT22;38809;53.300;6.614;2022-12-07T09:30:48;5.60;99.90
52943;DHT22;38809;53.300;6.614;2022-12-07T09:33:14;6.60;99.90
52943;DHT22;38809;53.300;6.614;2022-12-07T09:35:50;5.50;99.90
52943;DHT22;38809;53.300;6.614;2022-12-07T09:38:17;5.40;99.90
52943;DHT22;38809;53.300;6.614;2022-12-07T09:40:43;5.60;99.90
52943;DHT22;38809;53.300;6.614;2022-12-07T09:43:23;5.40;99.90
52943;DHT22;38809;53.300;6.614;2022-12-07T09:45:54;5.30;99.90
52943;DHT22;38809;53.300;6.614;2022-12-07T09:48:29;6.80;99.90
52943;DHT22;38809;53.300;6.614;2022-12-07T09:50:58;5.50;99.90
52943;DHT22;38809;53.300;6.614;2022-12-07T09:53:25;5.80;99.90
52943;DHT22;38809;53.300;6.614;2022-12-07T09:55:52;5.50;99.90
52943;DHT22;38809;53.300;6.614;2022-12-07T09:58:26;5.70;99.90
52943;DHT22;38809;53.300;6.614;2022-12-07T10:00:59;6.60;99.90
52943;DHT22;38809;53.300;6.614;2022-12-07T10:03:27;5.80;99.90
52943;DHT22;38809;53.300;6.614;2022-12-07T10:05:55;6.00;99.90
52943;DHT22;38809;53.300;6.614;2022-12-07T10:08:20;7.30;99.90
52943;DHT22;38809;53.300;6.614;2022-12-07T10:10:54;6.00;99.90
52943;DHT22;38809;53.300;6.614;2022-12-07T10:14:09;6.10;99.90
52943;DHT22;38809;53.300;6.614;2022-12-07T10:18:52;6.00;99.90
52943;DHT22;38809;53.300;6.614;2022-12-07T10:21:20;6.10;99.90
52943;DHT22;38809;53.300;6.614;2022-12-07T10:31:43;6.20;99.90
52943;DHT22;38809;53.300;6.614;2022-12-07T10:34:25;6.20;99.90
52943;DHT22;38809;53.300;6.614;2022-12-07T10:36:53;6.20;99.90
52943;DHT22;38809;53.300;6.614;2022-12-07T10:39:23;6.60;99.90
52943;DHT22;38809;53.300;6.614;2022-12-07T10:42:01;6.50;99.90
52943;DHT22;38809;53.300;6.614;2022-12-07T10:44:32;6.10;99.90
52943;DHT22;38809;53.300;6.614;2022-12-07T10:52:32;6.00;99.90
52943;DHT22;38809;53.300;6.614;2022-12-07T10:55:14;5.90;99.90
52943;DHT22;38809;53.300;6.614;2022-12-07T10:57:47;5.90;99.90
52943;DHT22;38809;53.300;6.614;2022-12-07T11:00:25;5.90;99.90
52943;DHT22;38809;53.300;6.614;2022-12-07T11:09:04;5.80;99.90
52943;DHT22;38809;53.300;6.614;2022-12-07T11:11:41;5.80;99.90
52943;DHT22;38809;53.300;6.614;2022-12-07T11:14:25;5.70;99.90
52943;DHT22;38809;53.300;6.614;2022-12-07T11:16:56;5.90;99.90
52943;DHT22;38809;53.300;6.614;2022-12-07T11:19:46;5.60;99.90
52943;DHT22;38809;53.300;6.614;2022-12-07T11:22:43;5.70;99.90
52943;DHT22;38809;53.300;6.614;2022-12-07T11:25:31;5.70;99.90
52943;DHT22;38809;53.300;6.614;2022-12-07T11:33:49;6.00;99.90
52943;DHT22;38809;53.300;6.614;2022-12-07T11:39:00;6.20;99.90
52943;DHT22;38809;53.300;6.614;2022-12-07T11:41:37;6.20;99.90
52943;DHT22;38809;53.300;6.614;2022-12-07T11:44:30;6.20;99.90
52943;DHT22;38809;53.300;6.614;2022-12-07T11:47:04;6.20;99.90
52943;DHT22;38809;53.300;6.614;2022-12-07T11:49:47;6.00;99.90
52943;DHT22;38809;53.300;6.614;2022-12-07T11:52:30;6.00;99.90
52943;DHT22;38809;53.300;6.614;2022-12-07T11:54:57;6.00;99.90
52943;DHT22;38809;53.300;6.614;2022-12-07T11:57:37;6.00;99.90
52943;DHT22;38809;53.300;6.614;2022-12-07T12:00:13;6.20;99.90
52943;DHT22;38809;53.300;6.614;2022-12-07T12:02:55;5.90;99.90
52943;DHT22;38809;53.300;6.614;2022-12-07T12:05:23;5.90;99.90
52943;DHT22;38809;53.300;6.614;2022-12-07T12:10:54;5.80;99.90
52943;DHT22;38809;53.300;6.614;2022-12-07T12:19:44;5.90;99.90
52943;DHT22;38809;53.300;6.614;2022-12-07T12:21:39;5.90;99.90
52943;DHT22;38809;53.300;6.614;2022-12-07T12:24:13;6.50;99.90
52943;DHT22;38809;53.300;6.614;2022-12-07T12:26:49;6.00;99.90
52943;DHT22;38809;53.300;6.614;2022-12-07T12:29:42;7.30;99.90
52943;DHT22;38809;53.300;6.614;2022-12-07T12:32:21;6.10;99.90
52943;DHT22;38809;53.300;6.614;2022-12-07T12:42:50;6.10;99.90
52943;DHT22;38809;53.300;6.614;2022-12-07T12:45:27;6.00;99.90
52943;DHT22;38809;53.300;6.614;2022-12-07T12:47:56;6.10;99.90
52943;DHT22;38809;53.300;6.614;2022-12-07T12:53:20;5.90;99.90
52943;DHT22;38809;53.300;6.614;2022-12-07T12:56:02;5.90;99.90
52943;DHT22;38809;53.300;6.614;2022-12-07T12:58:37;5.90;99.90
52943;DHT22;38809;53.300;6.614;2022-12-07T13:04:18;5.80;99.90
52943;DHT22;38809;53.300;6.614;2022-12-07T13:06:47;5.80;99.90
52943;DHT22;38809;53.300;6.614;2022-12-07T13:09:39;6.30;99.90
52943;DHT22;38809;53.300;6.614;2022-12-07T13:12:14;6.30;99.90
52943;DHT22;38809;53.300;6.614;2022-12-07T13:14:52;5.90;99.90
52943;DHT22;38809;53.300;6.614;2022-12-07T13:20:04;5.90;99.90
52943;DHT22;38809;53.300;6.614;2022-12-07T13:27:57;5.70;99.90
52943;DHT22;38809;53.300;6.614;2022-12-07T13:30:23;5.60;99.90
52943;DHT22;38809;53.300;6.614;2022-12-07T13:32:59;5.60;99.90
52943;DHT22;38809;53.300;6.614;2022-12-07T13:35:36;5.40;99.90
52943;DHT22;38809;53.300;6.614;2022-12-07T13:38:13;5.40;99.90
52943;DHT22;38809;53.300;6.614;2022-12-07T13:40:41;5.30;99.90
52943;DHT22;38809;53.300;6.614;2022-12-07T13:43:13;5.30;99.90
52943;DHT22;38809;53.300;6.614;2022-12-07T13:45:40;6.30;99.90
52943;DHT22;38809;53.300;6.614;2022-12-07T13:48:33;5.10;99.90
52943;DHT22;38809;53.300;6.614;2022-12-07T13:51:03;5.00;99.90
52943;DHT22;38809;53.300;6.614;2022-12-07T13:53:30;5.00;99.90
52943;DHT22;38809;53.300;6.614;2022-12-07T13:56:00;4.90;99.90
52943;DHT22;38809;53.300;6.614;2022-12-07T13:58:31;4.80;99.90
52943;DHT22;38809;53.300;6.614;2022-12-07T14:00:58;4.90;99.90
52943;DHT22;38809;53.300;6.614;2022-12-07T14:03:32;4.80;99.90
52943;DHT22;38809;53.300;6.614;2022-12-07T14:08:45;4.80;99.90
52943;DHT22;38809;53.300;6.614;2022-12-07T14:11:15;4.90;99.90
52943;DHT22;38809;53.300;6.614;2022-12-07T14:13:53;4.60;99.90
52943;DHT22;38809;53.300;6.614;2022-12-07T14:16:35;4.50;99.90
52943;DHT22;38809;53.300;6.614;2022-12-07T14:19:06;4.40;99.90
52943;DHT22;38809;53.300;6.614;2022-12-07T14:22:15;4.80;99.90
52943;DHT22;38809;53.300;6.614;2022-12-07T14:24:43;4.30;99.90
52943;DHT22;38809;53.300;6.614;2022-12-07T14:27:20;4.30;99.90
52943;DHT22;38809;53.300;6.614;2022-12-07T14:29:47;4.20;99.90
52943;DHT22;38809;53.300;6.614;2022-12-07T14:32:26;4.40;99.90
52943;DHT22;38809;53.300;6.614;2022-12-07T14:35:11;4.30;99.90
52943;DHT22;38809;53.300;6.614;2022-12-07T14:37:38;4.30;99.90
52943;DHT22;38809;53.300;6.614;2022-12-07T14:40:05;4.60;99.90
52943;DHT22;38809;53.300;6.614;2022-12-07T14:42:33;4.30;99.90
52943;DHT22;38809;53.300;6.614;2022-12-07T14:44:59;4.60;99.90
52943;DHT22;38809;53.300;6.614;2022-12-07T14:47:26;4.80;99.90
52943;DHT22;38809;53.300;6.614;2022-12-07T14:49:52;4.50;99.90
52943;DHT22;38809;53.300;6.614;2022-12-07T14:52:24;4.40;99.90
52943;DHT22;38809;53.300;6.614;2022-12-07T14:54:52;5.80;99.90
52943;DHT22;38809;53.300;6.614;2022-12-07T14:57:18;4.40;99.90
52943;DHT22;38809;53.300;6.614;2022-12-07T14:59:43;4.30;99.90
52943;DHT22;38809;53.300;6.614;2022-12-07T15:02:12;4.30;99.90
52943;DHT22;38809;53.300;6.614;2022-12-07T15:04:38;4.20;99.90
52943;DHT22;38809;53.300;6.614;2022-12-07T15:07:08;4.30;99.90
52943;DHT22;38809;53.300;6.614;2022-12-07T15:09:35;4.30;99.90
52943;DHT22;38809;53.300;6.614;2022-12-07T15:12:00;4.20;99.90
52943;DHT22;38809;53.300;6.614;2022-12-07T15:14:26;4.20;99.90
52943;DHT22;38809;53.300;6.614;2022-12-07T15:16:52;4.30;99.90
52943;DHT22;38809;53.300;6.614;2022-12-07T15:19:23;5.10;99.90
52943;DHT22;38809;53.300;6.614;2022-12-07T15:21:51;4.20;99.90
52943;DHT22;38809;53.300;6.614;2022-12-07T15:24:17;4.00;99.90
52943;DHT22;38809;53.300;6.614;2022-12-07T15:26:42;4.10;99.90
52943;DHT22;38809;53.300;6.614;2022-12-07T15:29:09;4.00;99.90
52943;DHT22;38809;53.300;6.614;2022-12-07T15:31:35;5.00;99.90
52943;DHT22;38809;53.300;6.614;2022-12-07T15:34:01;4.40;99.90
52943;DHT22;38809;53.300;6.614;2022-12-07T15:36:28;5.30;99.90
52943;DHT22;38809;53.300;6.614;2022-12-07T15:38:56;4.00;99.90
52943;DHT22;38809;53.300;6.614;2022-12-07T15:41:22;4.00;99.90
52943;DHT22;38809;53.300;6.614;2022-12-07T15:43:48;5.70;99.90
52943;DHT22;38809;53.300;6.614;2022-12-07T15:46:39;3.90;99.90
52943;DHT22;38809;53.300;6.614;2022-12-07T15:49:11;3.90;99.90
52943;DHT22;38809;53.300;6.614;2022-12-07T15:51:37;3.80;99.90
52943;DHT22;38809;53.300;6.614;2022-12-07T15:54:03;5.10;99.90
52943;DHT22;38809;53.300;6.614;2022-12-07T15:56:29;3.80;99.90
52943;DHT22;38809;53.300;6.614;2022-12-07T15:58:56;3.70;99.90
52943;DHT22;38809;53.300;6.614;2022-12-07T16:01:22;3.70;99.90
52943;DHT22;38809;53.300;6.614;2022-12-07T16:03:47;3.70;99.90
52943;DHT22;38809;53.300;6.614;2022-12-07T16:06:18;4.60;99.90
52943;DHT22;38809;53.300;6.614;2022-12-07T16:08:45;3.70;99.90
52943;DHT22;38809;53.300;6.614;2022-12-07T16:11:12;3.70;99.90
52943;DHT22;38809;53.300;6.614;2022-12-07T16:13:38;3.90;99.90
52943;DHT22;38809;53.300;6.614;2022-12-07T16:16:05;5.50;99.90
52943;DHT22;38809;53.300;6.614;2022-12-07T16:18:33;3.60;99.90
52943;DHT22;38809;53.300;6.614;2022-12-07T16:20:59;4.30;99.90
52943;DHT22;38809;53.300;6.614;2022-12-07T16:23:24;5.20;99.90
52943;DHT22;38809;53.300;6.614;2022-12-07T16:25:50;4.70;99.90
52943;DHT22;38809;53.300;6.614;2022-12-07T16:28:16;3.60;99.90
52943;DHT22;38809;53.300;6.614;2022-12-07T16:30:41;3.50;99.90
52943;DHT22;38809;53.300;6.614;2022-12-07T16:33:07;5.30;99.90
52943;DHT22;38809;53.300;6.614;2022-12-07T16:35:33;3.60;99.90
52943;DHT22;38809;53.300;6.614;2022-12-07T16:37:58;3.60;99.90
52943;DHT22;38809;53.300;6.614;2022-12-07T16:40:24;3.60;99.90
52943;DHT22;38809;53.300;6.614;2022-12-07T16:42:50;3.60;99.90
52943;DHT22;38809;53.300;6.614;2022-12-07T16:45:15;3.80;99.90
52943;DHT22;38809;53.300;6.614;2022-12-07T16:47:41;3.60;99.90
52943;DHT22;38809;53.300;6.614;2022-12-07T16:50:07;3.80;99.90
52943;DHT22;38809;53.300;6.614;2022-12-07T16:52:33;3.60;99.90
52943;DHT22;38809;53.300;6.614;2022-12-07T16:54:59;3.50;99.90
52943;DHT22;38809;53.300;6.614;2022-12-07T16:57:25;3.50;99.90
52943;DHT22;38809;53.300;6.614;2022-12-07T16:59:51;4.30;99.90
52943;DHT22;38809;53.300;6.614;2022-12-07T17:02:18;5.10;99.90
52943;DHT22;38809;53.300;6.614;2022-12-07T17:04:44;3.70;99.90
52943;DHT22;38809;53.300;6.614;2022-12-07T17:07:09;3.40;99.90
52943;DHT22;38809;53.300;6.614;2022-12-07T17:09:36;3.50;99.90
52943;DHT22;38809;53.300;6.614;2022-12-07T17:12:02;3.30;99.90
52943;DHT22;38809;53.300;6.614;2022-12-07T17:14:28;3.20;99.90
52943;DHT22;38809;53.300;6.614;2022-12-07T17:17:12;3.60;99.90
52943;DHT22;38809;53.300;6.614;2022-12-07T17:19:37;3.40;99.90
52943;DHT22;38809;53.300;6.614;2022-12-07T17:22:03;3.20;99.90
52943;DHT22;38809;53.300;6.614;2022-12-07T17:24:29;3.50;99.90
52943;DHT22;38809;53.300;6.614;2022-12-07T17:26:55;3.20;99.90
52943;DHT22;38809;53.300;6.614;2022-12-07T17:29:21;3.30;99.90
52943;DHT22;38809;53.300;6.614;2022-12-07T17:31:48;5.10;99.90
52943;DHT22;38809;53.300;6.614;2022-12-07T17:34:14;4.00;99.90